Raritan, Illinois
Current Conditions -  °F | °C
As of 2:35 AM on Tuesday 21 Oct 2014 (Local Time) from KMQB Reporting Station
Clear Clear  
Wind Chill: 44°   Ceiling: Unl
Heat Index: 44°   Visibility: 10mi
Dew Point: 41°   Wind: 3mph
Humidity: 89%   Direction: 30°NNE
Pressure: 30.07"   Gusts: NA
Location:  40.7°N, 90.83°W
Report Text: KMQB 210735Z AUTO 03003KT 10SM CLR 07/05 A3007 RMK AO2 T00650048
Loading
Personal Weather Stations






























Interactive Weather Map New forecast layout! Learn more

10-Day Weather Forecast

Advertisements
Track Severe Weather on mobile